sensor_id;sensor_type;location;lat;lon;timestamp;temperature;humidity
55331;DHT22;58851;42.984;20.336;2023-06-22T00:02:14;486.70;128.00
55331;DHT22;58851;42.984;20.336;2023-06-22T00:04:40;486.80;128.00
55331;DHT22;58851;42.984;20.336;2023-06-22T00:07:06;486.70;128.00
55331;DHT22;58851;42.984;20.336;2023-06-22T00:09:32;486.70;128.00
55331;DHT22;58851;42.984;20.336;2023-06-22T00:11:58;486.70;128.00
55331;DHT22;58851;42.984;20.336;2023-06-22T00:14:24;486.80;128.00
55331;DHT22;58851;42.984;20.336;2023-06-22T00:16:50;486.80;128.00
55331;DHT22;58851;42.984;20.336;2023-06-22T00:19:23;486.70;128.00
55331;DHT22;58851;42.984;20.336;2023-06-22T00:21:50;486.70;128.00
55331;DHT22;58851;42.984;20.336;2023-06-22T00:24:20;486.70;128.00
55331;DHT22;58851;42.984;20.336;2023-06-22T00:26:46;486.70;128.00
55331;DHT22;58851;42.984;20.336;2023-06-22T00:29:12;486.70;128.00
55331;DHT22;58851;42.984;20.336;2023-06-22T00:31:38;486.60;128.00
55331;DHT22;58851;42.984;20.336;2023-06-22T00:34:04;486.40;128.00
55331;DHT22;58851;42.984;20.336;2023-06-22T00:36:32;486.40;128.00
55331;DHT22;58851;42.984;20.336;2023-06-22T00:38:58;486.50;128.00
55331;DHT22;58851;42.984;20.336;2023-06-22T00:41:24;486.40;128.00
55331;DHT22;58851;42.984;20.336;2023-06-22T00:43:50;486.50;128.00
55331;DHT22;58851;42.984;20.336;2023-06-22T00:46:16;486.50;128.00
55331;DHT22;58851;42.984;20.336;2023-06-22T00:48:41;486.40;128.00
55331;DHT22;58851;42.984;20.336;2023-06-22T00:51:10;486.40;128.00
55331;DHT22;58851;42.984;20.336;2023-06-22T00:53:36;486.40;128.00
55331;DHT22;58851;42.984;20.336;2023-06-22T00:56:04;486.40;128.00
55331;DHT22;58851;42.984;20.336;2023-06-22T00:58:31;486.40;128.00
55331;DHT22;58851;42.984;20.336;2023-06-22T01:00:57;486.40;128.00
55331;DHT22;58851;42.984;20.336;2023-06-22T01:03:23;461.70;128.00
55331;DHT22;58851;42.984;20.336;2023-06-22T01:05:50;461.70;128.00
55331;DHT22;58851;42.984;20.336;2023-06-22T01:10:55;461.60;128.00
55331;DHT22;58851;42.984;20.336;2023-06-22T01:13:28;461.60;128.00
55331;DHT22;58851;42.984;20.336;2023-06-22T01:16:26;461.60;128.00
55331;DHT22;58851;42.984;20.336;2023-06-22T01:18:55;461.50;128.00
55331;DHT22;58851;42.984;20.336;2023-06-22T01:21:24;461.30;128.00
55331;DHT22;58851;42.984;20.336;2023-06-22T01:24:03;461.30;128.00
55331;DHT22;58851;42.984;20.336;2023-06-22T01:29:06;461.10;128.00
55331;DHT22;58851;42.984;20.336;2023-06-22T01:31:34;461.10;128.00
55331;DHT22;58851;42.984;20.336;2023-06-22T01:34:04;461.00;128.00
55331;DHT22;58851;42.984;20.336;2023-06-22T01:36:32;461.10;128.00
55331;DHT22;58851;42.984;20.336;2023-06-22T01:38:58;461.10;128.00
55331;DHT22;58851;42.984;20.336;2023-06-22T01:41:26;461.10;128.00
55331;DHT22;58851;42.984;20.336;2023-06-22T01:43:53;461.10;128.00
55331;DHT22;58851;42.984;20.336;2023-06-22T01:46:20;461.10;128.00
55331;DHT22;58851;42.984;20.336;2023-06-22T01:48:47;461.10;128.00
55331;DHT22;58851;42.984;20.336;2023-06-22T01:51:13;461.10;128.00
55331;DHT22;58851;42.984;20.336;2023-06-22T01:53:39;461.10;128.00
55331;DHT22;58851;42.984;20.336;2023-06-22T01:56:05;461.10;128.00
55331;DHT22;58851;42.984;20.336;2023-06-22T01:58:32;461.10;128.00
55331;DHT22;58851;42.984;20.336;2023-06-22T02:03:30;461.10;128.00
55331;DHT22;58851;42.984;20.336;2023-06-22T02:06:03;461.10;128.00
55331;DHT22;58851;42.984;20.336;2023-06-22T02:08:32;461.00;128.00
55331;DHT22;58851;42.984;20.336;2023-06-22T02:11:01;461.00;128.00
55331;DHT22;58851;42.984;20.336;2023-06-22T02:13:27;461.00;128.00
55331;DHT22;58851;42.984;20.336;2023-06-22T02:15:54;461.00;128.00
55331;DHT22;58851;42.984;20.336;2023-06-22T02:18:20;461.00;128.00
55331;DHT22;58851;42.984;20.336;2023-06-22T02:20:46;461.00;128.00
55331;DHT22;58851;42.984;20.336;2023-06-22T02:23:12;460.90;128.00
55331;DHT22;58851;42.984;20.336;2023-06-22T02:25:37;460.90;128.00
55331;DHT22;58851;42.984;20.336;2023-06-22T02:28:04;460.90;128.00
55331;DHT22;58851;42.984;20.336;2023-06-22T02:30:30;460.90;128.00
55331;DHT22;58851;42.984;20.336;2023-06-22T02:32:55;460.80;128.00
55331;DHT22;58851;42.984;20.336;2023-06-22T02:35:26;460.80;128.00
55331;DHT22;58851;42.984;20.336;2023-06-22T02:37:51;460.80;128.00
55331;DHT22;58851;42.984;20.336;2023-06-22T02:40:17;460.80;128.00
55331;DHT22;58851;42.984;20.336;2023-06-22T02:42:43;460.80;128.00
55331;DHT22;58851;42.984;20.336;2023-06-22T02:45:09;460.80;128.00
55331;DHT22;58851;42.984;20.336;2023-06-22T02:47:35;460.80;128.00
55331;DHT22;58851;42.984;20.336;2023-06-22T02:50:01;460.80;128.00
55331;DHT22;58851;42.984;20.336;2023-06-22T02:52:27;460.80;128.00
55331;DHT22;58851;42.984;20.336;2023-06-22T02:54:53;436.10;128.00
55331;DHT22;58851;42.984;20.336;2023-06-22T02:57:18;436.10;128.00
55331;DHT22;58851;42.984;20.336;2023-06-22T02:59:44;436.00;128.00
55331;DHT22;58851;42.984;20.336;2023-06-22T03:02:10;436.00;128.00
55331;DHT22;58851;42.984;20.336;2023-06-22T03:04:37;436.00;128.00
55331;DHT22;58851;42.984;20.336;2023-06-22T03:07:03;436.00;128.00
55331;DHT22;58851;42.984;20.336;2023-06-22T03:09:29;436.00;128.00
55331;DHT22;58851;42.984;20.336;2023-06-22T03:11:55;436.00;128.00
55331;DHT22;58851;42.984;20.336;2023-06-22T03:14:21;436.00;128.00
55331;DHT22;58851;42.984;20.336;2023-06-22T03:16:47;436.00;128.00
55331;DHT22;58851;42.984;20.336;2023-06-22T03:19:13;435.90;128.00
55331;DHT22;58851;42.984;20.336;2023-06-22T03:21:39;435.90;128.00
55331;DHT22;58851;42.984;20.336;2023-06-22T03:24:06;435.90;128.00
55331;DHT22;58851;42.984;20.336;2023-06-22T03:26:32;436.00;128.00
55331;DHT22;58851;42.984;20.336;2023-06-22T03:28:57;436.00;128.00
55331;DHT22;58851;42.984;20.336;2023-06-22T03:31:23;436.00;128.00
55331;DHT22;58851;42.984;20.336;2023-06-22T03:33:50;436.00;128.00
55331;DHT22;58851;42.984;20.336;2023-06-22T03:36:17;436.00;128.00
55331;DHT22;58851;42.984;20.336;2023-06-22T03:38:47;436.00;128.00
55331;DHT22;58851;42.984;20.336;2023-06-22T03:41:13;435.90;128.00
55331;DHT22;58851;42.984;20.336;2023-06-22T03:43:39;435.90;128.00
55331;DHT22;58851;42.984;20.336;2023-06-22T03:46:05;435.90;128.00
55331;DHT22;58851;42.984;20.336;2023-06-22T03:48:31;435.90;128.00
55331;DHT22;58851;42.984;20.336;2023-06-22T03:50:59;435.90;128.00
55331;DHT22;58851;42.984;20.336;2023-06-22T03:53:25;436.00;128.00
55331;DHT22;58851;42.984;20.336;2023-06-22T03:55:52;436.00;128.00
55331;DHT22;58851;42.984;20.336;2023-06-22T03:58:19;436.00;128.00
55331;DHT22;58851;42.984;20.336;2023-06-22T04:00:46;436.10;128.00
55331;DHT22;58851;42.984;20.336;2023-06-22T04:03:13;436.10;128.00
55331;DHT22;58851;42.984;20.336;2023-06-22T04:05:39;436.10;128.00
55331;DHT22;58851;42.984;20.336;2023-06-22T04:08:06;460.80;128.00
55331;DHT22;58851;42.984;20.336;2023-06-22T04:10:31;460.80;128.00
55331;DHT22;58851;42.984;20.336;2023-06-22T04:12:57;460.90;128.00
55331;DHT22;58851;42.984;20.336;2023-06-22T04:15:23;460.90;128.00
55331;DHT22;58851;42.984;20.336;2023-06-22T04:17:49;461.00;128.00
55331;DHT22;58851;42.984;20.336;2023-06-22T04:20:15;461.00;128.00
55331;DHT22;58851;42.984;20.336;2023-06-22T04:22:41;461.10;128.00
55331;DHT22;58851;42.984;20.336;2023-06-22T04:25:07;461.10;128.00
55331;DHT22;58851;42.984;20.336;2023-06-22T04:27:35;461.10;128.00
55331;DHT22;58851;42.984;20.336;2023-06-22T04:30:06;461.30;128.00
55331;DHT22;58851;42.984;20.336;2023-06-22T04:32:33;461.10;128.00
55331;DHT22;58851;42.984;20.336;2023-06-22T04:35:04;461.30;128.00
55331;DHT22;58851;42.984;20.336;2023-06-22T04:37:32;461.30;128.00
55331;DHT22;58851;42.984;20.336;2023-06-22T04:39:58;461.30;128.00
55331;DHT22;58851;42.984;20.336;2023-06-22T04:42:26;461.40;128.00
55331;DHT22;58851;42.984;20.336;2023-06-22T04:44:52;461.50;128.00
55331;DHT22;58851;42.984;20.336;2023-06-22T04:47:18;461.40;128.00
55331;DHT22;58851;42.984;20.336;2023-06-22T04:49:44;461.40;128.00
55331;DHT22;58851;42.984;20.336;2023-06-22T04:52:11;461.50;128.00
55331;DHT22;58851;42.984;20.336;2023-06-22T04:54:38;461.50;128.00
55331;DHT22;58851;42.984;20.336;2023-06-22T04:57:06;461.50;128.00
55331;DHT22;58851;42.984;20.336;2023-06-22T04:59:36;461.50;128.00
55331;DHT22;58851;42.984;20.336;2023-06-22T05:02:05;461.70;128.00
55331;DHT22;58851;42.984;20.336;2023-06-22T05:04:31;461.70;128.00
55331;DHT22;58851;42.984;20.336;2023-06-22T05:06:58;461.70;128.00
55331;DHT22;58851;42.984;20.336;2023-06-22T05:09:25;486.40;128.00
55331;DHT22;58851;42.984;20.336;2023-06-22T05:11:51;486.50;128.00
55331;DHT22;58851;42.984;20.336;2023-06-22T05:14:18;486.60;128.00
55331;DHT22;58851;42.984;20.336;2023-06-22T05:16:45;486.70;128.00
55331;DHT22;58851;42.984;20.336;2023-06-22T05:19:12;486.80;128.00
55331;DHT22;58851;42.984;20.336;2023-06-22T05:21:38;486.90;128.00
55331;DHT22;58851;42.984;20.336;2023-06-22T05:24:04;486.90;128.00
55331;DHT22;58851;42.984;20.336;2023-06-22T05:26:31;487.00;128.00
55331;DHT22;58851;42.984;20.336;2023-06-22T05:28:58;486.90;128.00
55331;DHT22;58851;42.984;20.336;2023-06-22T05:31:24;487.00;128.00
55331;DHT22;58851;42.984;20.336;2023-06-22T05:33:52;487.10;128.00
55331;DHT22;58851;42.984;20.336;2023-06-22T05:36:18;487.00;128.00
55331;DHT22;58851;42.984;20.336;2023-06-22T05:38:47;487.00;128.00
55331;DHT22;58851;42.984;20.336;2023-06-22T05:41:13;487.00;128.00
55331;DHT22;58851;42.984;20.336;2023-06-22T05:43:39;487.20;128.00
55331;DHT22;58851;42.984;20.336;2023-06-22T05:46:06;487.20;128.00
55331;DHT22;58851;42.984;20.336;2023-06-22T05:48:32;487.30;128.00
55331;DHT22;58851;42.984;20.336;2023-06-22T05:50:58;512.00;128.00
55331;DHT22;58851;42.984;20.336;2023-06-22T05:53:25;512.20;128.00
55331;DHT22;58851;42.984;20.336;2023-06-22T05:55:52;512.20;128.00
55331;DHT22;58851;42.984;20.336;2023-06-22T05:58:19;512.20;128.00
55331;DHT22;58851;42.984;20.336;2023-06-22T06:00:44;512.40;128.00
55331;DHT22;58851;42.984;20.336;2023-06-22T06:03:11;512.50;128.00
55331;DHT22;58851;42.984;20.336;2023-06-22T06:05:37;512.70;128.00
55331;DHT22;58851;42.984;20.336;2023-06-22T06:08:05;512.80;128.00
55331;DHT22;58851;42.984;20.336;2023-06-22T06:10:35;512.90;128.00
55331;DHT22;58851;42.984;20.336;2023-06-22T06:13:01;537.60;128.00
55331;DHT22;58851;42.984;20.336;2023-06-22T06:15:28;537.60;128.00
55331;DHT22;58851;42.984;20.336;2023-06-22T06:17:54;537.90;128.00
55331;DHT22;58851;42.984;20.336;2023-06-22T06:20:22;537.90;128.00
55331;DHT22;58851;42.984;20.336;2023-06-22T06:22:48;538.00;128.00
55331;DHT22;58851;42.984;20.336;2023-06-22T06:25:14;538.10;128.00
55331;DHT22;58851;42.984;20.336;2023-06-22T06:27:45;538.20;128.00
55331;DHT22;58851;42.984;20.336;2023-06-22T06:30:14;538.30;128.00
55331;DHT22;58851;42.984;20.336;2023-06-22T06:32:41;538.30;128.00
55331;DHT22;58851;42.984;20.336;2023-06-22T06:35:08;538.50;128.00
55331;DHT22;58851;42.984;20.336;2023-06-22T06:37:39;563.20;128.00
55331;DHT22;58851;42.984;20.336;2023-06-22T06:40:09;563.20;128.00
55331;DHT22;58851;42.984;20.336;2023-06-22T06:42:39;563.20;128.00
55331;DHT22;58851;42.984;20.336;2023-06-22T06:45:08;563.30;128.00
55331;DHT22;58851;42.984;20.336;2023-06-22T06:47:34;563.40;128.00
55331;DHT22;58851;42.984;20.336;2023-06-22T06:50:00;563.60;128.00
55331;DHT22;58851;42.984;20.336;2023-06-22T06:52:26;563.70;128.00
55331;DHT22;58851;42.984;20.336;2023-06-22T06:54:52;563.80;128.00
55331;DHT22;58851;42.984;20.336;2023-06-22T06:57:18;563.80;128.00
55331;DHT22;58851;42.984;20.336;2023-06-22T06:59:46;563.80;128.00
55331;DHT22;58851;42.984;20.336;2023-06-22T07:02:12;563.90;128.00
55331;DHT22;58851;42.984;20.336;2023-06-22T07:04:38;564.00;128.00
55331;DHT22;58851;42.984;20.336;2023-06-22T07:07:04;564.00;128.00
55331;DHT22;58851;42.984;20.336;2023-06-22T07:09:30;588.80;128.00
55331;DHT22;58851;42.984;20.336;2023-06-22T07:11:56;588.90;128.00
55331;DHT22;58851;42.984;20.336;2023-06-22T07:14:22;589.00;128.00
55331;DHT22;58851;42.984;20.336;2023-06-22T07:16:48;589.20;128.00
55331;DHT22;58851;42.984;20.336;2023-06-22T07:19:13;589.20;128.00
55331;DHT22;58851;42.984;20.336;2023-06-22T07:21:39;589.20;128.00
55331;DHT22;58851;42.984;20.336;2023-06-22T07:24:06;589.30;128.00
55331;DHT22;58851;42.984;20.336;2023-06-22T07:26:33;589.40;128.00
55331;DHT22;58851;42.984;20.336;2023-06-22T07:28:59;589.50;128.00
55331;DHT22;58851;42.984;20.336;2023-06-22T07:31:25;589.60;128.00
55331;DHT22;58851;42.984;20.336;2023-06-22T07:33:51;589.70;128.00
55331;DHT22;58851;42.984;20.336;2023-06-22T07:36:18;589.70;128.00
55331;DHT22;58851;42.984;20.336;2023-06-22T07:38:44;614.40;128.00
55331;DHT22;58851;42.984;20.336;2023-06-22T07:41:10;614.60;128.00
55331;DHT22;58851;42.984;20.336;2023-06-22T07:43:36;614.70;128.00
55331;DHT22;58851;42.984;20.336;2023-06-22T07:46:05;614.80;128.00
55331;DHT22;58851;42.984;20.336;2023-06-22T07:48:32;615.00;128.00
55331;DHT22;58851;42.984;20.336;2023-06-22T07:50:57;615.00;128.00
55331;DHT22;58851;42.984;20.336;2023-06-22T07:53:23;615.20;128.00
55331;DHT22;58851;42.984;20.336;2023-06-22T07:55:50;615.30;128.00
55331;DHT22;58851;42.984;20.336;2023-06-22T07:58:15;640.00;128.00
55331;DHT22;58851;42.984;20.336;2023-06-22T08:00:44;640.10;128.00
55331;DHT22;58851;42.984;20.336;2023-06-22T08:03:10;640.20;128.00
55331;DHT22;58851;42.984;20.336;2023-06-22T08:05:36;640.30;128.00
55331;DHT22;58851;42.984;20.336;2023-06-22T08:08:02;640.30;128.00
55331;DHT22;58851;42.984;20.336;2023-06-22T08:10:27;640.50;128.00
55331;DHT22;58851;42.984;20.336;2023-06-22T08:12:53;640.70;128.00
55331;DHT22;58851;42.984;20.336;2023-06-22T08:15:19;640.90;128.00
55331;DHT22;58851;42.984;20.336;2023-06-22T08:17:45;665.70;153.60
55331;DHT22;58851;42.984;20.336;2023-06-22T08:20:11;665.80;153.60
55331;DHT22;58851;42.984;20.336;2023-06-22T08:22:38;665.90;153.60
55331;DHT22;58851;42.984;20.336;2023-06-22T08:25:04;666.10;153.60
55331;DHT22;58851;42.984;20.336;2023-06-22T08:27:31;666.20;153.60
55331;DHT22;58851;42.984;20.336;2023-06-22T08:29:58;666.30;153.60
55331;DHT22;58851;42.984;20.336;2023-06-22T08:32:28;666.50;153.60
55331;DHT22;58851;42.984;20.336;2023-06-22T08:34:55;691.20;153.60
55331;DHT22;58851;42.984;20.336;2023-06-22T08:37:21;691.30;153.60
55331;DHT22;58851;42.984;20.336;2023-06-22T08:39:50;691.30;204.80
55331;DHT22;58851;42.984;20.336;2023-06-22T08:42:16;691.30;230.40
55331;DHT22;58851;42.984;20.336;2023-06-22T08:44:42;691.40;435.20
55331;DHT22;58851;42.984;20.336;2023-06-22T08:49:34;691.70;486.40
55331;DHT22;58851;42.984;20.336;2023-06-22T08:52:00;691.70;512.00
55331;DHT22;58851;42.984;20.336;2023-06-22T08:54:26;691.80;640.00
55331;DHT22;58851;42.984;20.336;2023-06-22T08:56:51;691.70;460.80
55331;DHT22;58851;42.984;20.336;2023-06-22T08:59:17;691.70;537.60
55331;DHT22;58851;42.984;20.336;2023-06-22T09:01:43;691.70;256.00
55331;DHT22;58851;42.984;20.336;2023-06-22T09:04:11;691.70;230.40
55331;DHT22;58851;42.984;20.336;2023-06-22T09:06:37;691.70;179.20
55331;DHT22;58851;42.984;20.336;2023-06-22T09:09:10;691.80;230.40
55331;DHT22;58851;42.984;20.336;2023-06-22T09:14:02;716.80;179.20
55331;DHT22;58851;42.984;20.336;2023-06-22T09:16:29;692.10;153.60
55331;DHT22;58851;42.984;20.336;2023-06-22T09:18:55;716.80;179.20
55331;DHT22;58851;42.984;20.336;2023-06-22T09:21:21;716.90;179.20
55331;DHT22;58851;42.984;20.336;2023-06-22T09:23:47;717.10;179.20
55331;DHT22;58851;42.984;20.336;2023-06-22T09:26:17;717.00;179.20
55331;DHT22;58851;42.984;20.336;2023-06-22T09:28:43;717.00;179.20
55331;DHT22;58851;42.984;20.336;2023-06-22T09:31:09;717.00;179.20
55331;DHT22;58851;42.984;20.336;2023-06-22T09:33:36;717.00;179.20
55331;DHT22;58851;42.984;20.336;2023-06-22T09:36:05;716.90;179.20
55331;DHT22;58851;42.984;20.336;2023-06-22T09:38:38;717.10;179.20
55331;DHT22;58851;42.984;20.336;2023-06-22T09:41:04;717.30;179.20
55331;DHT22;58851;42.984;20.336;2023-06-22T09:43:32;717.50;179.20
55331;DHT22;58851;42.984;20.336;2023-06-22T09:46:01;717.50;179.20
55331;DHT22;58851;42.984;20.336;2023-06-22T09:48:28;717.60;179.20
55331;DHT22;58851;42.984;20.336;2023-06-22T09:50:55;717.50;179.20
55331;DHT22;58851;42.984;20.336;2023-06-22T09:53:21;717.60;179.20
55331;DHT22;58851;42.984;20.336;2023-06-22T09:55:47;742.40;204.80
55331;DHT22;58851;42.984;20.336;2023-06-22T09:58:12;742.50;204.80
55331;DHT22;58851;42.984;20.336;2023-06-22T10:00:38;742.50;204.80
55331;DHT22;58851;42.984;20.336;2023-06-22T10:03:04;742.60;204.80
55331;DHT22;58851;42.984;20.336;2023-06-22T10:05:30;742.60;204.80
55331;DHT22;58851;42.984;20.336;2023-06-22T10:07:57;742.50;204.80
55331;DHT22;58851;42.984;20.336;2023-06-22T10:10:23;742.50;204.80
55331;DHT22;58851;42.984;20.336;2023-06-22T10:12:56;742.60;204.80
55331;DHT22;58851;42.984;20.336;2023-06-22T10:15:23;742.60;204.80
55331;DHT22;58851;42.984;20.336;2023-06-22T10:17:49;742.60;204.80
55331;DHT22;58851;42.984;20.336;2023-06-22T10:20:15;742.80;204.80
55331;DHT22;58851;42.984;20.336;2023-06-22T10:22:44;742.90;204.80
55331;DHT22;58851;42.984;20.336;2023-06-22T10:25:13;743.00;204.80
55331;DHT22;58851;42.984;20.336;2023-06-22T10:27:39;743.10;204.80
55331;DHT22;58851;42.984;20.336;2023-06-22T10:30:09;743.10;204.80
55331;DHT22;58851;42.984;20.336;2023-06-22T10:32:37;743.20;204.80
55331;DHT22;58851;42.984;20.336;2023-06-22T10:35:03;743.30;204.80
55331;DHT22;58851;42.984;20.336;2023-06-22T10:37:29;768.00;204.80
55331;DHT22;58851;42.984;20.336;2023-06-22T10:39:55;768.00;204.80
55331;DHT22;58851;42.984;20.336;2023-06-22T10:42:20;768.10;204.80
55331;DHT22;58851;42.984;20.336;2023-06-22T10:44:47;768.20;204.80
55331;DHT22;58851;42.984;20.336;2023-06-22T10:47:12;768.20;204.80
55331;DHT22;58851;42.984;20.336;2023-06-22T10:49:39;768.30;204.80
55331;DHT22;58851;42.984;20.336;2023-06-22T10:52:06;768.40;204.80
55331;DHT22;58851;42.984;20.336;2023-06-22T10:54:33;768.50;204.80
55331;DHT22;58851;42.984;20.336;2023-06-22T10:57:00;768.60;204.80
55331;DHT22;58851;42.984;20.336;2023-06-22T10:59:26;768.80;204.80
55331;DHT22;58851;42.984;20.336;2023-06-22T11:01:53;768.90;204.80
55331;DHT22;58851;42.984;20.336;2023-06-22T11:04:19;793.60;230.40
55331;DHT22;58851;42.984;20.336;2023-06-22T11:06:44;793.60;230.40
55331;DHT22;58851;42.984;20.336;2023-06-22T11:09:10;793.60;230.40
55331;DHT22;58851;42.984;20.336;2023-06-22T11:11:36;793.80;230.40
55331;DHT22;58851;42.984;20.336;2023-06-22T11:14:02;793.80;230.40
55331;DHT22;58851;42.984;20.336;2023-06-22T11:16:28;794.10;230.40
55331;DHT22;58851;42.984;20.336;2023-06-22T11:18:54;794.30;230.40
55331;DHT22;58851;42.984;20.336;2023-06-22T11:21:20;819.20;230.40
55331;DHT22;58851;42.984;20.336;2023-06-22T11:23:45;819.20;230.40
55331;DHT22;58851;42.984;20.336;2023-06-22T11:26:11;819.20;563.20
55331;DHT22;58851;42.984;20.336;2023-06-22T11:28:37;819.30;384.00
55331;DHT22;58851;42.984;20.336;2023-06-22T11:31:03;819.20;230.40
55331;DHT22;58851;42.984;20.336;2023-06-22T11:33:29;819.20;486.40
55331;DHT22;58851;42.984;20.336;2023-06-22T11:35:54;819.30;665.60
55331;DHT22;58851;42.984;20.336;2023-06-22T11:38:22;819.50;409.60
55331;DHT22;58851;42.984;20.336;2023-06-22T11:40:47;819.70;230.40
55331;DHT22;58851;42.984;20.336;2023-06-22T11:43:13;819.80;230.40
55331;DHT22;58851;42.984;20.336;2023-06-22T11:45:40;820.00;230.40
55331;DHT22;58851;42.984;20.336;2023-06-22T11:48:06;844.80;256.00
55331;DHT22;58851;42.984;20.336;2023-06-22T11:50:32;845.00;256.00
55331;DHT22;58851;42.984;20.336;2023-06-22T11:53:02;845.20;256.00
55331;DHT22;58851;42.984;20.336;2023-06-22T11:55:28;845.50;256.00
55331;DHT22;58851;42.984;20.336;2023-06-22T11:57:55;845.70;256.00
55331;DHT22;58851;42.984;20.336;2023-06-22T12:00:22;870.40;256.00
55331;DHT22;58851;42.984;20.336;2023-06-22T12:02:50;870.50;256.00
55331;DHT22;58851;42.984;20.336;2023-06-22T12:05:20;870.60;256.00
55331;DHT22;58851;42.984;20.336;2023-06-22T12:07:49;870.60;256.00
55331;DHT22;58851;42.984;20.336;2023-06-22T12:10:15;870.70;256.00
55331;DHT22;58851;42.984;20.336;2023-06-22T12:12:41;870.90;256.00
55331;DHT22;58851;42.984;20.336;2023-06-22T12:15:09;871.00;256.00
55331;DHT22;58851;42.984;20.336;2023-06-22T12:17:35;871.00;256.00
55331;DHT22;58851;42.984;20.336;2023-06-22T12:20:01;871.10;256.00
55331;DHT22;58851;42.984;20.336;2023-06-22T12:22:31;871.20;256.00
55331;DHT22;58851;42.984;20.336;2023-06-22T12:24:57;871.20;256.00
55331;DHT22;58851;42.984;20.336;2023-06-22T12:27:25;871.20;256.00
55331;DHT22;58851;42.984;20.336;2023-06-22T12:29:51;871.30;256.00
55331;DHT22;58851;42.984;20.336;2023-06-22T12:32:17;896.20;256.00
55331;DHT22;58851;42.984;20.336;2023-06-22T12:34:44;896.30;256.00
55331;DHT22;58851;42.984;20.336;2023-06-22T12:37:10;896.50;256.00
55331;DHT22;58851;42.984;20.336;2023-06-22T12:39:36;896.70;256.00
55331;DHT22;58851;42.984;20.336;2023-06-22T12:42:02;896.80;256.00
55331;DHT22;58851;42.984;20.336;2023-06-22T12:44:28;921.60;281.60
55331;DHT22;58851;42.984;20.336;2023-06-22T12:46:53;921.90;281.60
55331;DHT22;58851;42.984;20.336;2023-06-22T12:49:19;922.10;281.60
55331;DHT22;58851;42.984;20.336;2023-06-22T12:51:45;922.20;281.60
55331;DHT22;58851;42.984;20.336;2023-06-22T12:54:11;922.50;281.60
55331;DHT22;58851;42.984;20.336;2023-06-22T12:56:38;947.40;281.60
55331;DHT22;58851;42.984;20.336;2023-06-22T12:59:04;947.60;281.60
55331;DHT22;58851;42.984;20.336;2023-06-22T13:01:30;947.80;281.60
55331;DHT22;58851;42.984;20.336;2023-06-22T13:03:58;947.80;281.60
55331;DHT22;58851;42.984;20.336;2023-06-22T13:06:24;947.90;281.60
55331;DHT22;58851;42.984;20.336;2023-06-22T13:08:50;972.80;307.20
55331;DHT22;58851;42.984;20.336;2023-06-22T13:11:16;973.20;307.20
55331;DHT22;58851;42.984;20.336;2023-06-22T13:13:43;973.30;307.20
55331;DHT22;58851;42.984;20.336;2023-06-22T13:16:09;973.70;307.20
55331;DHT22;58851;42.984;20.336;2023-06-22T13:18:34;998.40;332.80
55331;DHT22;58851;42.984;20.336;2023-06-22T13:21:02;998.50;819.20
55331;DHT22;58851;42.984;20.336;2023-06-22T13:25:53;999.20;332.80
55331;DHT22;58851;42.984;20.336;2023-06-22T13:28:19;999.30;793.60
55331;DHT22;58851;42.984;20.336;2023-06-22T13:30:46;1024.30;512.00
55331;DHT22;58851;42.984;20.336;2023-06-22T13:35:39;1049.70;358.40
55331;DHT22;58851;42.984;20.336;2023-06-22T13:38:10;1050.00;358.40
55331;DHT22;58851;42.984;20.336;2023-06-22T13:40:37;1050.20;358.40
55331;DHT22;58851;42.984;20.336;2023-06-22T13:43:06;1050.50;358.40
55331;DHT22;58851;42.984;20.336;2023-06-22T13:47:59;1100.80;384.00
55331;DHT22;58851;42.984;20.336;2023-06-22T13:50:24;1100.80;384.00
55331;DHT22;58851;42.984;20.336;2023-06-22T13:52:50;1075.90;358.40
55331;DHT22;58851;42.984;20.336;2023-06-22T13:55:16;1076.10;358.40
55331;DHT22;58851;42.984;20.336;2023-06-22T13:57:42;1100.90;384.00
55331;DHT22;58851;42.984;20.336;2023-06-22T14:00:09;1101.60;384.00
55331;DHT22;58851;42.984;20.336;2023-06-22T14:02:35;1126.50;409.60
55331;DHT22;58851;42.984;20.336;2023-06-22T14:05:01;1127.00;409.60
55331;DHT22;58851;42.984;20.336;2023-06-22T14:07:28;1126.70;409.60
55331;DHT22;58851;42.984;20.336;2023-06-22T14:09:53;1127.10;409.60
55331;DHT22;58851;42.984;20.336;2023-06-22T14:12:19;1152.00;409.60
55331;DHT22;58851;42.984;20.336;2023-06-22T14:14:45;1152.50;409.60
55331;DHT22;58851;42.984;20.336;2023-06-22T14:17:11;1152.70;409.60
55331;DHT22;58851;42.984;20.336;2023-06-22T14:19:37;1152.70;409.60
55331;DHT22;58851;42.984;20.336;2023-06-22T14:22:03;1177.80;409.60
55331;DHT22;58851;42.984;20.336;2023-06-22T14:24:29;1178.20;409.60
55331;DHT22;58851;42.984;20.336;2023-06-22T14:26:55;1178.20;409.60
55331;DHT22;58851;42.984;20.336;2023-06-22T14:29:21;1203.30;435.20
55331;DHT22;58851;42.984;20.336;2023-06-22T14:31:48;1203.80;435.20
55331;DHT22;58851;42.984;20.336;2023-06-22T14:34:15;1228.90;460.80
55331;DHT22;58851;42.984;20.336;2023-06-22T14:36:41;1229.00;460.80
55331;DHT22;58851;42.984;20.336;2023-06-22T14:39:08;1229.00;460.80
55331;DHT22;58851;42.984;20.336;2023-06-22T14:41:34;1228.80;460.80
55331;DHT22;58851;42.984;20.336;2023-06-22T14:44:00;1228.80;460.80
55331;DHT22;58851;42.984;20.336;2023-06-22T14:46:27;1204.00;435.20
55331;DHT22;58851;42.984;20.336;2023-06-22T14:48:52;1229.30;460.80
55331;DHT22;58851;42.984;20.336;2023-06-22T14:51:18;1254.50;486.40
55331;DHT22;58851;42.984;20.336;2023-06-22T14:53:45;1254.70;486.40
55331;DHT22;58851;42.984;20.336;2023-06-22T14:56:11;1254.60;486.40
55331;DHT22;58851;42.984;20.336;2023-06-22T14:58:38;1254.70;486.40
55331;DHT22;58851;42.984;20.336;2023-06-22T15:01:05;1255.00;486.40
55331;DHT22;58851;42.984;20.336;2023-06-22T15:03:34;1280.10;486.40
55331;DHT22;58851;42.984;20.336;2023-06-22T15:06:01;1254.90;486.40